Time;durP1;ratioP1;P1;durP2;ratioP2;P2;SDS_P1;SDS_P2;PMS_P1;PMS_P2;Temp;Humidity;BMP_temperature;BMP_pressure;BME280_temperature;BME280_humidity;BME280_pressure;Samples;Min_cycle;Max_cycle;Signal;HPM_P1;HPM_P2
2023/02/19 00:01:31;;;;;;;;;3.75;2.75;;;;;6.23;99.47;98177.16;4893572;28;104307;-72
2023/02/19 00:04:00;;;;;;;;;3.75;3.00;;;;;6.17;98.29;98184.06;4895000;28;102206;-72
2023/02/19 00:06:30;;;;;;;;;2.25;2.00;;;;;6.11;98.47;98184.84;4893666;28;102224;-72
2023/02/19 00:08:57;;;;;;;;;3.25;2.00;;;;;6.11;97.72;98190.19;4895961;28;102452;-71
2023/02/19 00:11:27;;;;;;;;;0.25;0.00;;;;;6.11;97.56;98184.84;4890472;28;104097;-72
2023/02/19 00:13:57;;;;;;;;;3.00;2.50;;;;;6.12;97.44;98189.16;4885722;28;102864;-72
2023/02/19 00:16:29;;;;;;;;;2.75;2.00;;;;;6.13;97.37;98184.63;4892044;28;102115;-72
2023/02/19 00:18:57;;;;;;;;;4.00;2.00;;;;;6.10;97.63;98183.16;4892696;28;105795;-71
2023/02/19 00:21:25;;;;;;;;;4.50;3.00;;;;;5.98;97.23;98173.91;4891944;28;104165;-70
2023/02/19 00:23:55;;;;;;;;;4.25;3.00;;;;;5.99;96.97;98175.53;4893711;28;102357;-72
2023/02/19 00:26:22;;;;;;;;;1.75;1.75;;;;;6.00;97.18;98176.38;4888611;28;102465;-71
2023/02/19 00:28:51;;;;;;;;;4.00;3.25;;;;;5.90;96.75;98182.00;4890963;28;102323;-70
2023/02/19 00:31:28;;;;;;;;;2.50;2.50;;;;;5.95;96.94;98168.88;4892692;28;104001;-70
2023/02/19 00:34:04;;;;;;;;;1.75;1.25;;;;;5.94;97.13;98183.31;4892273;28;102471;-70
2023/02/19 00:36:36;;;;;;;;;3.25;3.00;;;;;5.88;96.65;98173.31;4892992;28;106021;-70
2023/02/19 00:39:06;;;;;;;;;7.00;4.50;;;;;5.90;96.86;98183.88;4893686;28;102304;-72
2023/02/19 00:41:33;;;;;;;;;2.00;1.00;;;;;5.89;97.27;98169.63;4893201;28;108744;-70
2023/02/19 00:44:03;;;;;;;;;2.50;2.25;;;;;6.01;97.11;98181.56;4891593;28;102307;-70
2023/02/19 00:46:32;;;;;;;;;2.00;1.00;;;;;6.04;97.35;98170.47;4892860;28;102378;-70
2023/02/19 00:48:59;;;;;;;;;2.00;1.00;;;;;6.06;97.42;98172.97;4894502;28;102489;-71
2023/02/19 00:51:29;;;;;;;;;1.00;1.00;;;;;6.07;97.68;98171.97;4889730;28;104168;-71
2023/02/19 00:53:57;;;;;;;;;1.00;1.00;;;;;6.02;97.94;98159.09;4891768;28;108124;-70
2023/02/19 00:56:24;;;;;;;;;3.50;2.00;;;;;6.07;99.07;98166.59;4892915;28;102398;-70
2023/02/19 00:58:51;;;;;;;;;3.00;3.00;;;;;6.06;99.02;98164.91;4889989;28;102219;-71
2023/02/19 01:01:19;;;;;;;;;3.75;3.25;;;;;6.06;99.91;98163.06;4893110;28;103980;-71
2023/02/19 01:03:47;;;;;;;;;4.00;4.00;;;;;6.02;100.00;98159.09;4890426;28;102250;-71
2023/02/19 01:06:17;;;;;;;;;3.50;3.00;;;;;5.98;99.88;98157.78;4890342;28;102334;-71
2023/02/19 01:08:44;;;;;;;;;5.00;3.00;;;;;5.98;99.49;98160.47;4891995;28;102091;-71
2023/02/19 01:11:13;;;;;;;;;6.00;4.25;;;;;5.92;99.06;98153.16;4891888;28;103674;-71
2023/02/19 01:13:40;;;;;;;;;2.25;2.25;;;;;5.94;98.81;98161.84;4892410;28;102387;-70
2023/02/19 01:16:19;;;;;;;;;6.25;5.25;;;;;5.86;99.04;98159.19;4895706;28;102482;-71
2023/02/19 01:18:47;;;;;;;;;4.25;3.00;;;;;5.81;99.39;98146.34;4892741;28;102397;-71
2023/02/19 01:21:18;;;;;;;;;5.75;3.50;;;;;5.80;99.64;98142.00;4893548;28;104217;-71
2023/02/19 01:23:45;;;;;;;;;6.00;6.00;;;;;5.78;100.00;98148.53;4893027;28;102120;-71
2023/02/19 01:26:18;;;;;;;;;8.00;4.00;;;;;5.71;100.00;98140.41;4891300;28;102124;-71
2023/02/19 01:28:47;;;;;;;;;6.00;6.00;;;;;5.67;100.00;98124.88;4894300;28;102279;-71
2023/02/19 01:31:17;;;;;;;;;7.25;6.25;;;;;5.58;100.00;98132.16;4893864;28;104320;-71
2023/02/19 01:33:45;;;;;;;;;6.75;6.25;;;;;5.61;100.00;98125.56;4890813;28;102563;-71
2023/02/19 01:36:13;;;;;;;;;5.25;5.00;;;;;5.66;100.00;98126.72;4893390;28;102066;-72
2023/02/19 01:38:41;;;;;;;;;5.75;5.75;;;;;5.67;100.00;98120.31;4893875;28;102100;-72
2023/02/19 01:41:11;;;;;;;;;8.00;7.00;;;;;5.66;100.00;98126.72;4888022;28;103986;-72
2023/02/19 01:44:13;;;;;;;;;5.50;3.75;;;;;5.71;100.00;98120.81;4890161;28;102011;-71
2023/02/19 01:46:41;;;;;;;;;4.50;3.50;;;;;5.70;100.00;98121.81;4764937;29;102339;-71
2023/02/19 01:49:18;;;;;;;;;5.00;4.50;;;;;5.69;100.00;98114.78;4886757;28;102074;-72
2023/02/19 01:51:55;;;;;;;;;4.00;3.50;;;;;5.66;100.00;98115.97;4892198;28;109266;-73
2023/02/19 01:54:25;;;;;;;;;8.75;8.00;;;;;5.59;100.00;98116.88;4895452;28;102513;-72
2023/02/19 01:56:53;;;;;;;;;5.00;5.00;;;;;5.67;100.00;98117.63;4896923;28;102325;-72
2023/02/19 01:59:20;;;;;;;;;3.00;3.00;;;;;5.68;100.00;98107.72;4897197;28;102459;-72
2023/02/19 02:01:48;;;;;;;;;3.25;3.00;;;;;5.73;100.00;98110.69;4889808;28;104071;-71
2023/02/19 02:04:17;;;;;;;;;3.00;3.00;;;;;5.74;100.00;98115.06;4893138;28;101992;-71
2023/02/19 02:10:18;;;;;;;;;3.00;3.00;;;;;5.74;100.00;98110.53;4894050;28;102487;-71
2023/02/19 02:10:26;;;;;;;;;3.75;2.00;;;;;5.78;100.00;98113.69;4891225;28;101961;-72
2023/02/19 02:13:09;;;;;;;;;3.00;3.00;;;;;5.78;100.00;98097.59;4879248;28;108882;-72
2023/02/19 02:16:24;;;;;;;;;3.50;2.00;;;;;5.82;100.00;98105.06;4893806;28;102103;-72
2023/02/19 02:19:27;;;;;;;;;10.00;5.50;;;;;5.81;100.00;98095.34;4887615;28;102377;-71
2023/02/19 02:22:30;;;;;;;;;4.00;3.00;;;;;5.81;100.00;98084.63;4892914;28;102199;-72
2023/02/19 02:25:43;;;;;;;;;1.50;1.50;;;;;5.82;100.00;98090.84;4892475;28;107715;-71
2023/02/19 02:28:24;;;;;;;;;4.25;4.25;;;;;5.83;100.00;98089.81;4869751;28;104722;-71
2023/02/19 02:31:15;;;;;;;;;7.00;6.00;;;;;5.83;100.00;98096.03;4893519;28;102158;-72
2023/02/19 02:33:53;;;;;;;;;7.00;6.00;;;;;5.80;100.00;98088.34;4866884;28;102483;-71
2023/02/19 02:36:33;;;;;;;;;8.25;7.00;;;;;5.74;100.00;98081.03;4893640;28;104121;-71
2023/02/19 02:39:03;;;;;;;;;9.00;7.75;;;;;5.72;100.00;98076.84;4895343;28;109679;-71
2023/02/19 02:41:32;;;;;;;;;15.25;12.00;;;;;5.64;100.00;98068.88;4896404;28;102860;-71
2023/02/19 02:43:59;;;;;;;;;12.50;10.50;;;;;5.66;100.00;98072.22;4894171;28;102357;-71
2023/02/19 02:46:33;;;;;;;;;14.00;13.00;;;;;5.73;100.00;98078.53;4892621;28;103944;-71
2023/02/19 02:49:08;;;;;;;;;11.25;9.75;;;;;5.76;100.00;98075.50;4892589;28;103754;-72
2023/02/19 02:51:40;;;;;;;;;10.75;9.75;;;;;5.70;100.00;98046.72;4893429;28;106114;-71
2023/02/19 02:56:59;;;;;;;;;6.50;6.00;;;;;5.84;100.00;98060.13;4893370;28;109353;-70
2023/02/19 02:59:32;;;;;;;;;8.00;7.75;;;;;5.83;100.00;98063.00;4894623;28;102293;-71
2023/02/19 03:02:17;;;;;;;;;8.75;8.00;;;;;5.80;100.00;98064.22;4894727;28;102238;-71
2023/02/19 03:08:03;;;;;;;;;8.00;7.00;;;;;5.82;100.00;98058.63;4890551;28;108718;-71
2023/02/19 03:10:37;;;;;;;;;6.00;6.00;;;;;5.81;100.00;98054.28;4894446;28;102419;-69
2023/02/19 03:21:40;;;;;;;;;5.00;4.00;;;;;5.78;100.00;98055.50;4896792;28;102388;-71
2023/02/19 03:27:01;;;;;;;;;9.25;7.25;;;;;5.76;100.00;98048.66;4896568;28;102243;-71
2023/02/19 03:29:34;;;;;;;;;7.75;7.50;;;;;5.74;100.00;98053.38;4881782;28;104066;-72
2023/02/19 03:32:07;;;;;;;;;8.00;7.00;;;;;5.70;100.00;98039.50;4896047;28;102295;-72
2023/02/19 03:34:45;;;;;;;;;4.50;4.50;;;;;5.79;100.00;98050.97;4894249;28;102019;-72
2023/02/19 03:37:20;;;;;;;;;4.00;4.00;;;;;5.78;100.00;98050.13;4892799;28;102147;-71
2023/02/19 03:39:47;;;;;;;;;5.50;5.00;;;;;5.76;100.00;98057.53;4894330;28;104021;-72
2023/02/19 03:42:20;;;;;;;;;4.25;4.25;;;;;5.73;100.00;98041.81;4872949;28;102447;-72
2023/02/19 03:45:00;;;;;;;;;5.00;4.25;;;;;5.73;100.00;98049.00;4868357;28;102018;-72
2023/02/19 03:47:38;;;;;;;;;7.75;7.00;;;;;5.74;100.00;98059.56;4847198;28;102381;-72
2023/02/19 03:50:51;;;;;;;;;6.75;6.50;;;;;5.66;100.00;98056.13;4871331;28;104007;-72
2023/02/19 03:53:52;;;;;;;;;6.25;5.25;;;;;5.68;100.00;98056.78;4794109;29;102233;-72
2023/02/19 03:57:01;;;;;;;;;4.25;3.75;;;;;5.72;100.00;98055.38;4879977;28;102142;-71
2023/02/19 04:00:07;;;;;;;;;8.75;8.75;;;;;5.62;100.00;98054.84;4891357;28;102575;-71
2023/02/19 04:02:38;;;;;;;;;4.50;4.50;;;;;5.64;100.00;98048.28;4883966;28;108395;-71
2023/02/19 04:05:15;;;;;;;;;3.75;3.00;;;;;5.66;100.00;98050.78;4873286;28;102452;-71
2023/02/19 04:07:47;;;;;;;;;3.00;3.00;;;;;5.66;100.00;98040.06;4866778;28;102101;-72
2023/02/19 04:10:17;;;;;;;;;1.25;1.25;;;;;5.66;100.00;98040.06;4873733;28;102557;-71
2023/02/19 04:12:53;;;;;;;;;2.00;2.00;;;;;5.57;100.00;98023.22;4869000;28;104046;-71
2023/02/19 04:15:26;;;;;;;;;1.25;1.25;;;;;5.66;100.00;98037.38;4878028;28;102177;-71
2023/02/19 04:17:58;;;;;;;;;1.00;0.00;;;;;5.68;100.00;98024.59;4869153;28;102311;-71
2023/02/19 04:20:29;;;;;;;;;3.00;2.25;;;;;5.55;100.00;98016.34;4879116;28;102054;-71
2023/02/19 04:22:57;;;;;;;;;3.50;2.25;;;;;5.63;100.00;98038.56;4873234;28;104000;-71
2023/02/19 04:25:26;;;;;;;;;1.00;1.00;;;;;5.66;100.00;98024.78;4878767;28;102405;-71
2023/02/19 04:27:53;;;;;;;;;1.00;1.00;;;;;5.67;100.00;98034.47;4879048;28;102237;-72
2023/02/19 04:30:21;;;;;;;;;2.50;2.00;;;;;5.65;100.00;98039.22;4878489;28;105518;-72
2023/02/19 04:32:48;;;;;;;;;1.50;1.50;;;;;5.65;100.00;98033.00;4877109;28;104036;-72
2023/02/19 04:35:15;;;;;;;;;2.00;1.00;;;;;5.66;100.00;98034.69;4885227;28;102404;-72
2023/02/19 04:37:42;;;;;;;;;1.00;1.00;;;;;5.67;100.00;98026.44;4887502;28;102056;-72
2023/02/19 04:40:09;;;;;;;;;1.00;1.00;;;;;5.70;100.00;98027.94;4867553;28;102071;-72
2023/02/19 04:42:36;;;;;;;;;0.00;0.00;;;;;5.70;100.00;98022.56;4879901;28;108498;-72
2023/02/19 04:45:04;;;;;;;;;0.00;0.00;;;;;5.70;100.00;98014.53;4870487;28;102261;-72
2023/02/19 04:47:31;;;;;;;;;0.00;0.00;;;;;5.71;100.00;98016.19;4881285;28;102132;-72
2023/02/19 04:49:58;;;;;;;;;0.00;0.00;;;;;5.73;100.00;98014.16;4886845;28;102373;-72
2023/02/19 04:52:25;;;;;;;;;0.25;0.25;;;;;5.74;100.00;98010.44;4881389;28;104006;-72
2023/02/19 04:54:52;;;;;;;;;1.00;0.25;;;;;5.75;100.00;97996.03;4874145;28;102390;-73
2023/02/19 04:57:19;;;;;;;;;1.00;0.25;;;;;5.74;100.00;97995.19;4882302;28;102247;-73
2023/02/19 04:59:46;;;;;;;;;1.00;1.00;;;;;5.74;100.00;97979.09;4875346;28;102089;-73
2023/02/19 05:02:13;;;;;;;;;1.50;1.00;;;;;5.63;100.00;97963.47;4884192;28;104306;-73
2023/02/19 05:04:40;;;;;;;;;2.00;0.25;;;;;5.69;100.00;97961.88;4868655;28;102197;-73
2023/02/19 05:07:07;;;;;;;;;0.00;0.00;;;;;5.76;100.00;97970.88;4874725;28;101962;-73
2023/02/19 05:09:34;;;;;;;;;0.50;0.00;;;;;5.75;100.00;97958.47;4875579;28;102216;-73
2023/02/19 05:12:01;;;;;;;;;0.25;0.25;;;;;5.68;100.00;97946.81;4881348;28;104003;-71
2023/02/19 05:14:28;;;;;;;;;0.25;0.25;;;;;5.74;100.00;97946.91;4870233;28;102088;-71
2023/02/19 05:16:55;;;;;;;;;1.25;1.00;;;;;5.72;100.00;97945.41;4873823;28;102572;-72
2023/02/19 05:19:22;;;;;;;;;1.00;1.00;;;;;5.72;100.00;97940.06;4874726;28;102281;-71
2023/02/19 05:21:49;;;;;;;;;3.50;3.00;;;;;5.72;100.00;97940.06;4866392;28;103920;-72
2023/02/19 05:24:16;;;;;;;;;1.75;1.00;;;;;5.73;100.00;97939.03;4866842;28;102432;-71
2023/02/19 05:26:43;;;;;;;;;3.75;2.75;;;;;5.73;100.00;97941.72;4865754;28;102218;-71
2023/02/19 05:29:11;;;;;;;;;0.00;0.00;;;;;5.72;100.00;97938.22;4884403;28;102395;-72
2023/02/19 05:31:38;;;;;;;;;2.00;1.00;;;;;5.74;100.00;97935.34;4879752;28;108971;-71
2023/02/19 05:34:05;;;;;;;;;1.75;1.75;;;;;5.76;100.00;97938.69;4877347;28;102379;-71
2023/02/19 05:36:32;;;;;;;;;5.50;2.25;;;;;5.74;100.00;97936.19;4893925;28;102019;-72
2023/02/19 05:38:59;;;;;;;;;5.00;3.00;;;;;5.75;100.00;97932.50;4876745;28;102355;-71
2023/02/19 05:41:28;;;;;;;;;2.00;2.00;;;;;5.77;100.00;97929.59;4882932;28;104836;-72
2023/02/19 05:43:56;;;;;;;;;3.00;3.00;;;;;5.79;100.00;97935.63;4872556;28;102382;-72
2023/02/19 05:46:25;;;;;;;;;3.50;2.25;;;;;5.78;100.00;97939.31;4872500;28;102114;-72
2023/02/19 05:48:53;;;;;;;;;11.75;11.00;;;;;5.61;100.00;97945.91;4871861;28;105006;-72
2023/02/19 05:51:23;;;;;;;;;9.00;8.50;;;;;5.62;100.00;97943.03;4871049;28;104010;-72
2023/02/19 05:53:50;;;;;;;;;7.00;7.00;;;;;5.57;100.00;97942.78;4873251;28;102226;-73
2023/02/19 05:56:37;;;;;;;;;5.25;5.25;;;;;5.63;100.00;97943.88;4867760;28;104587;-72
2023/02/19 05:59:10;;;;;;;;;7.75;7.00;;;;;5.57;100.00;97942.78;4874343;28;102490;-72
2023/02/19 06:01:37;;;;;;;;;7.75;6.75;;;;;5.47;100.00;97915.41;4867321;28;111210;-73
2023/02/19 06:04:04;;;;;;;;;4.75;3.50;;;;;5.70;100.00;97945.63;4877167;28;102618;-72
2023/02/19 06:06:31;;;;;;;;;10.00;7.00;;;;;5.68;100.00;97938.75;4877396;28;102540;-72
2023/02/19 06:08:58;;;;;;;;;8.00;8.00;;;;;5.68;100.00;97949.50;4876871;28;102210;-71
2023/02/19 06:11:25;;;;;;;;;6.75;5.75;;;;;5.76;100.00;97933.31;4872193;28;104054;-72
2023/02/19 06:13:52;;;;;;;;;6.00;4.00;;;;;5.81;100.00;97933.56;4868650;28;105651;-72
2023/02/19 06:16:20;;;;;;;;;6.50;5.50;;;;;5.81;100.00;97942.44;4885992;28;102845;-73
2023/02/19 06:18:48;;;;;;;;;7.00;5.00;;;;;5.81;100.00;97937.09;4870282;28;102917;-72
2023/02/19 06:21:17;;;;;;;;;5.00;5.00;;;;;5.85;100.00;97948.31;4876566;28;104009;-72
2023/02/19 06:23:44;;;;;;;;;7.25;7.25;;;;;5.78;100.00;97947.38;4872119;28;102057;-72
2023/02/19 06:26:16;;;;;;;;;5.50;5.50;;;;;5.76;100.00;97949.41;4865785;28;102444;-72
2023/02/19 06:28:44;;;;;;;;;7.25;6.75;;;;;5.75;100.00;97937.84;4876088;28;102480;-71
2023/02/19 06:31:12;;;;;;;;;6.75;6.00;;;;;5.83;100.00;97944.97;4867731;28;103727;-71
2023/02/19 06:33:40;;;;;;;;;5.00;5.00;;;;;5.89;100.00;97948.78;4877994;28;102113;-71
2023/02/19 06:36:14;;;;;;;;;4.25;3.00;;;;;5.90;100.00;97948.56;4874576;28;102175;-72
2023/02/19 06:38:41;;;;;;;;;3.75;3.00;;;;;5.94;100.00;97949.88;4877456;28;102186;-72
2023/02/19 06:41:09;;;;;;;;;5.50;4.25;;;;;5.95;100.00;97946.16;4890256;28;108809;-71
2023/02/19 06:43:37;;;;;;;;;5.75;5.00;;;;;5.85;100.00;97943.75;4894998;28;102508;-71
2023/02/19 06:46:05;;;;;;;;;2.00;2.00;;;;;5.96;100.00;97939.78;4900084;28;102028;-72
2023/02/19 06:48:33;;;;;;;;;6.50;6.00;;;;;6.03;100.00;97935.34;4884698;28;102412;-72
2023/02/19 06:51:00;;;;;;;;;4.50;4.00;;;;;6.08;100.00;97942.84;4891742;28;103959;-71
2023/02/19 06:53:27;;;;;;;;;8.00;6.00;;;;;6.11;100.00;97935.22;4889270;28;102422;-71
2023/02/19 06:55:57;;;;;;;;;6.00;3.00;;;;;6.15;100.00;97922.25;4900121;28;102132;-72
2023/02/19 06:58:24;;;;;;;;;2.00;1.75;;;;;6.22;100.00;97934.72;4883059;28;101975;-71
2023/02/19 07:00:52;;;;;;;;;2.00;2.00;;;;;6.23;100.00;97928.34;4891331;28;104193;-72
2023/02/19 07:03:19;;;;;;;;;2.00;1.00;;;;;6.27;100.00;97926.09;4905054;28;102133;-72
2023/02/19 07:05:46;;;;;;;;;3.00;3.00;;;;;6.23;100.00;97924.81;4914233;28;101994;-72
2023/02/19 07:08:13;;;;;;;;;3.50;2.00;;;;;6.25;100.00;97929.00;4885888;28;103011;-72
2023/02/19 07:10:40;;;;;;;;;4.25;2.00;;;;;6.26;100.00;97933.31;4877726;28;103927;-71
2023/02/19 07:13:07;;;;;;;;;3.00;2.00;;;;;6.30;100.00;97919.53;4887563;28;102382;-72
2023/02/19 07:15:34;;;;;;;;;1.00;1.00;;;;;6.30;100.00;97924.91;4898099;28;102096;-72
2023/02/19 07:18:04;;;;;;;;;2.75;2.00;;;;;6.32;100.00;97914.78;4904310;28;102314;-73
2023/02/19 07:20:30;;;;;;;;;2.50;2.00;;;;;6.34;100.00;97915.44;4884725;28;104038;-72
2023/02/19 07:22:57;;;;;;;;;4.50;4.25;;;;;6.39;100.00;97923.75;4891750;28;102515;-72
2023/02/19 07:25:24;;;;;;;;;7.75;7.25;;;;;6.40;100.00;97917.34;4895142;28;101997;-72
2023/02/19 07:27:51;;;;;;;;;8.75;8.00;;;;;6.45;100.00;97922.97;4896068;28;102422;-73
2023/02/19 07:30:18;;;;;;;;;7.00;4.25;;;;;6.51;100.00;97922.22;4877616;28;104266;-73
2023/02/19 07:32:45;;;;;;;;;13.50;9.25;;;;;6.47;100.00;97921.78;4897222;28;102400;-71
2023/02/19 07:35:12;;;;;;;;;14.25;13.00;;;;;6.51;100.00;97911.47;4896508;28;102301;-71
2023/02/19 07:37:40;;;;;;;;;16.50;12.25;;;;;6.47;100.00;97907.50;4904457;28;102458;-72
2023/02/19 07:40:07;;;;;;;;;15.00;12.50;;;;;6.52;100.00;97915.81;4900311;28;104069;-71
2023/02/19 07:42:34;;;;;;;;;11.25;11.25;;;;;6.54;100.00;97916.44;4897698;28;103138;-72
2023/02/19 07:45:01;;;;;;;;;13.25;12.00;;;;;6.51;100.00;97911.47;4892825;28;102527;-74
2023/02/19 07:47:28;;;;;;;;;11.00;9.00;;;;;6.51;100.00;97917.69;4887026;28;102448;-73
2023/02/19 07:49:55;;;;;;;;;17.50;13.25;;;;;6.50;100.00;97909.81;4892400;28;104017;-72
2023/02/19 07:52:22;;;;;;;;;14.25;13.00;;;;;6.56;100.00;97906.34;4886172;28;102180;-72
2023/02/19 07:54:49;;;;;;;;;10.50;8.25;;;;;6.60;100.00;97900.41;4912212;28;102412;-72
2023/02/19 07:57:16;;;;;;;;;22.25;19.25;;;;;6.54;100.00;97911.91;4904973;28;103029;-72
2023/02/19 07:59:43;;;;;;;;;18.75;14.50;;;;;6.61;100.00;97888.66;4894108;28;104140;-72
2023/02/19 08:05:02;;;;;;;;;13.50;12.00;;;;;6.69;100.00;97882.28;4884903;28;102141;-73
2023/02/19 08:07:33;;;;;;;;;14.75;11.75;;;;;6.63;100.00;97886.59;4876726;28;102451;-71
2023/02/19 08:15:48;;;;;;;;;9.00;8.50;;;;;6.82;100.00;97870.81;4883512;28;101949;-72
2023/02/19 08:18:17;;;;;;;;;17.25;12.50;;;;;6.77;100.00;97879.47;4900698;28;102385;-73
2023/02/19 08:20:44;;;;;;;;;13.50;12.00;;;;;6.72;100.00;97881.91;4898707;28;103487;-72
2023/02/19 08:23:11;;;;;;;;;9.50;9.50;;;;;6.77;100.00;97882.16;4896749;28;102563;-72
2023/02/19 08:25:39;;;;;;;;;14.25;9.50;;;;;6.79;100.00;97885.47;4886296;28;102174;-72
2023/02/19 08:28:08;;;;;;;;;15.75;10.50;;;;;6.87;100.00;97879.13;4892241;28;102502;-72
2023/02/19 08:30:37;;;;;;;;;9.00;8.50;;;;;6.93;100.00;97881.88;4894612;28;104043;-72
2023/02/19 08:33:06;;;;;;;;;8.25;7.25;;;;;6.96;100.00;97886.84;4911055;28;104091;-74
2023/02/19 08:35:35;;;;;;;;;8.50;7.50;;;;;7.00;100.00;97890.81;4899132;28;102939;-73
2023/02/19 08:38:03;;;;;;;;;9.50;8.25;;;;;7.04;100.00;97885.88;4886476;28;102243;-73
2023/02/19 08:40:30;;;;;;;;;4.50;4.00;;;;;7.03;100.00;97894.94;4899023;28;104246;-73
2023/02/19 08:43:06;;;;;;;;;25.75;23.75;;;;;6.75;100.00;97905.72;4900115;28;102460;-73
2023/02/19 08:45:33;;;;;;;;;22.00;20.00;;;;;6.71;100.00;97897.19;4903699;28;102264;-73
2023/02/19 08:48:00;;;;;;;;;24.25;23.25;;;;;6.67;100.00;97905.81;4890922;28;102076;-73
2023/02/19 08:50:27;;;;;;;;;25.00;21.75;;;;;6.60;100.00;97911.16;4900265;28;104007;-72
2023/02/19 08:52:54;;;;;;;;;28.25;23.50;;;;;6.39;100.00;97913.84;4903811;28;103885;-74
2023/02/19 08:55:21;;;;;;;;;22.50;21.25;;;;;6.39;100.00;97902.28;4896990;28;102396;-73
2023/02/19 08:57:48;;;;;;;;;23.75;18.75;;;;;6.26;100.00;97913.69;4899905;28;102075;-73
2023/02/19 09:00:16;;;;;;;;;15.25;13.25;;;;;6.25;100.00;97912.03;4896616;28;104015;-72
2023/02/19 09:02:43;;;;;;;;;17.25;16.25;;;;;6.29;100.00;97916.00;4892260;28;102179;-73
2023/02/19 09:05:11;;;;;;;;;19.00;14.00;;;;;6.39;100.00;97913.00;4891185;28;102114;-74
2023/02/19 09:07:39;;;;;;;;;13.00;9.50;;;;;6.42;100.00;97918.00;4899192;28;102457;-73
2023/02/19 09:10:08;;;;;;;;;24.25;17.50;;;;;6.37;100.00;97909.69;4899701;28;103989;-74
2023/02/19 09:12:37;;;;;;;;;17.25;15.00;;;;;6.39;100.00;97913.00;4888222;28;102570;-73
2023/02/19 09:15:04;;;;;;;;;19.75;12.50;;;;;6.31;100.00;97913.13;4913242;28;102451;-73
2023/02/19 09:17:31;;;;;;;;;18.50;17.50;;;;;6.31;100.00;97915.78;4907296;28;102282;-73
2023/02/19 09:19:58;;;;;;;;;14.00;13.25;;;;;6.36;100.00;97918.75;4896987;28;104020;-72
2023/02/19 09:22:25;;;;;;;;;16.00;14.00;;;;;6.32;100.00;97923.66;4889004;28;102315;-73
2023/02/19 09:24:52;;;;;;;;;17.50;14.25;;;;;6.33;100.00;97924.50;4890487;28;102223;-73
2023/02/19 09:27:19;;;;;;;;;19.00;18.00;;;;;6.28;100.00;97922.41;4900375;28;102307;-72
2023/02/19 09:29:46;;;;;;;;;12.00;12.00;;;;;6.37;100.00;97925.78;4887462;28;104018;-73
2023/02/19 09:32:13;;;;;;;;;28.25;21.00;;;;;6.26;100.00;97922.56;4900077;28;102466;-74
2023/02/19 09:34:43;;;;;;;;;23.75;21.25;;;;;6.25;100.00;97918.25;4894067;28;102386;-74
2023/02/19 09:37:10;;;;;;;;;21.50;18.75;;;;;6.24;100.00;97927.31;4900816;28;102844;-73
2023/02/19 09:39:37;;;;;;;;;46.25;36.50;;;;;6.06;100.00;97929.59;4894431;28;104269;-74
2023/02/19 09:42:14;;;;;;;;;27.50;24.25;;;;;6.13;100.00;97935.84;4909135;28;102581;-73
2023/02/19 09:44:44;;;;;;;;;32.50;27.00;;;;;5.99;100.00;97917.13;4904329;28;102320;-73
2023/02/19 09:47:21;;;;;;;;;25.75;24.00;;;;;6.00;100.00;97930.34;4912440;28;102307;-72
2023/02/19 09:49:52;;;;;;;;;36.00;31.00;;;;;6.08;100.00;97934.78;4890981;28;108905;-73
2023/02/19 09:52:42;;;;;;;;;36.50;29.25;;;;;6.07;100.00;97933.94;4899459;28;102272;-73
2023/02/19 09:55:37;;;;;;;;;43.25;30.50;;;;;5.93;100.00;97952.75;4908215;28;102300;-73
2023/02/19 09:58:20;;;;;;;;;9.50;7.25;;;;;5.67;100.00;97945.16;4871819;28;102160;-74
2023/02/19 10:00:49;;;;;;;;;7.00;6.50;;;;;5.37;100.00;97917.53;4908865;28;108751;-73
2023/02/19 10:03:33;;;;;;;;;7.50;6.75;;;;;5.48;100.00;97965.31;4906511;28;102318;-73
2023/02/19 10:06:05;;;;;;;;;7.00;6.00;;;;;5.45;100.00;97973.72;4897777;28;102304;-75
2023/02/19 10:08:34;;;;;;;;;7.00;6.25;;;;;5.44;100.00;97968.56;4898607;28;102251;-73
2023/02/19 10:11:03;;;;;;;;;8.00;7.00;;;;;5.54;100.00;97977.16;4882579;28;103989;-73
2023/02/19 10:13:34;;;;;;;;;8.00;7.00;;;;;5.37;100.00;97976.50;4902366;28;102484;-75
2023/02/19 10:16:05;;;;;;;;;6.00;6.00;;;;;5.17;99.65;97962.81;4889341;28;102269;-73
2023/02/19 10:18:40;;;;;;;;;4.00;3.25;;;;;5.23;99.67;97991.53;4887266;28;102312;-74
2023/02/19 10:21:36;;;;;;;;;2.25;2.25;;;;;5.12;100.00;98010.75;4879308;28;104036;-73
2023/02/19 10:24:05;;;;;;;;;3.00;3.00;;;;;4.69;100.00;98019.44;4876413;28;102478;-73
2023/02/19 10:26:35;;;;;;;;;3.25;2.75;;;;;4.18;100.00;98011.09;4888489;28;102301;-77
2023/02/19 10:29:03;;;;;;;;;2.25;2.00;;;;;3.97;100.00;98018.84;4891663;28;102444;-75
2023/02/19 10:31:31;;;;;;;;;6.00;5.00;;;;;3.88;100.00;98014.56;4891245;28;103978;-74
2023/02/19 10:34:00;;;;;;;;;2.75;2.75;;;;;3.86;100.00;98021.94;4891032;28;102525;-75
2023/02/19 10:36:31;;;;;;;;;4.00;3.00;;;;;3.68;100.00;98030.19;4882508;28;102109;-72
2023/02/19 10:39:01;;;;;;;;;4.00;2.00;;;;;3.68;100.00;98024.00;4908597;28;102283;-74
2023/02/19 10:41:29;;;;;;;;;5.00;3.50;;;;;3.78;100.00;98038.81;4907741;28;104180;-73
2023/02/19 10:44:09;;;;;;;;;3.00;3.00;;;;;3.84;100.00;98038.13;4908779;28;104177;-73
2023/02/19 10:46:42;;;;;;;;;6.00;3.00;;;;;3.71;100.00;98048.53;4897471;28;102239;-73
2023/02/19 10:49:30;;;;;;;;;5.50;4.50;;;;;3.73;100.00;98048.38;4877311;28;102029;-76
2023/02/19 10:52:20;;;;;;;;;5.75;5.75;;;;;3.81;100.00;98051.03;4893174;28;108433;-75
2023/02/19 10:54:55;;;;;;;;;5.50;4.50;;;;;3.68;100.00;98053.41;4895016;28;102228;-74
2023/02/19 10:57:29;;;;;;;;;6.00;5.75;;;;;3.67;100.00;98041.88;4896788;28;102131;-74
2023/02/19 11:00:15;;;;;;;;;4.00;3.00;;;;;3.85;100.00;98052.34;4878048;28;102305;-74
2023/02/19 11:02:44;;;;;;;;;3.00;3.00;;;;;3.71;100.00;98069.09;4904504;28;108672;-75
2023/02/19 11:05:13;;;;;;;;;5.50;2.00;;;;;3.53;100.00;98067.47;4899148;28;102040;-74
2023/02/19 11:07:48;;;;;;;;;3.50;2.75;;;;;3.66;100.00;98063.41;4900402;28;102132;-74
2023/02/19 11:10:38;;;;;;;;;6.00;5.75;;;;;3.69;100.00;98073.78;4895005;28;102050;-74
2023/02/19 11:13:12;;;;;;;;;4.75;4.50;;;;;3.66;100.00;98090.16;4890899;28;108693;-73
2023/02/19 11:15:40;;;;;;;;;5.75;5.00;;;;;3.56;100.00;98077.81;4900983;28;102312;-73
2023/02/19 11:18:13;;;;;;;;;5.00;5.00;;;;;3.53;100.00;98093.34;4892078;28;101998;-74
2023/02/19 11:20:54;;;;;;;;;7.00;6.00;;;;;3.55;100.00;98097.53;4901989;28;102543;-73
2023/02/19 11:23:28;;;;;;;;;7.00;6.00;;;;;3.45;100.00;98104.91;4893603;28;108702;-73
2023/02/19 11:25:58;;;;;;;;;6.75;4.75;;;;;3.51;100.00;98103.41;4888179;28;102023;-73
2023/02/19 11:28:38;;;;;;;;;5.00;4.50;;;;;3.51;100.00;98112.22;4881590;28;102104;-74
2023/02/19 11:31:17;;;;;;;;;9.00;7.00;;;;;3.32;100.00;98109.91;4892920;28;102255;-73
2023/02/19 11:34:13;;;;;;;;;8.25;7.25;;;;;3.34;100.00;98113.25;4898356;28;108401;-74
2023/02/19 11:36:41;;;;;;;;;6.00;6.00;;;;;3.37;100.00;98118.25;4884716;28;102404;-73
2023/02/19 11:39:14;;;;;;;;;8.00;6.75;;;;;3.36;100.00;98121.94;4881832;28;102843;-72
2023/02/19 11:42:06;;;;;;;;;6.75;6.25;;;;;3.33;100.00;98089.38;4881519;28;102297;-73
2023/02/19 11:44:45;;;;;;;;;8.00;7.00;;;;;3.64;100.00;98125.09;4900812;28;108660;-73
2023/02/19 11:47:27;;;;;;;;;8.75;8.75;;;;;3.65;100.00;98131.28;4905063;28;101897;-72
2023/02/19 11:49:57;;;;;;;;;11.25;11.00;;;;;3.51;100.00;98133.59;4880824;28;101997;-72
2023/02/19 11:53:22;;;;;;;;;8.00;7.50;;;;;3.61;100.00;98141.44;4905162;28;102091;-72
2023/02/19 11:55:54;;;;;;;;;12.75;11.00;;;;;3.54;100.00;98141.31;4817938;28;108646;-72
2023/02/19 11:59:04;;;;;;;;;9.75;7.50;;;;;3.53;99.85;98144.13;4896936;28;102303;-72
2023/02/19 12:01:49;;;;;;;;;8.50;7.00;;;;;3.54;98.46;98159.19;4884343;28;110829;-72
2023/02/19 12:04:48;;;;;;;;;5.00;4.75;;;;;3.70;98.92;98161.81;4907210;28;102405;-73
2023/02/19 12:07:43;;;;;;;;;8.50;6.50;;;;;3.80;100.00;98178.53;4900779;28;108508;-73
2023/02/19 12:10:22;;;;;;;;;12.25;9.50;;;;;3.82;98.86;98176.53;4883806;28;102076;-72
2023/02/19 12:13:22;;;;;;;;;6.75;6.00;;;;;3.87;98.34;98173.34;4886210;28;102396;-72
2023/02/19 12:16:22;;;;;;;;;4.00;1.00;;;;;3.83;97.81;98172.00;4901045;28;102029;-73